Time;durP1;ratioP1;P1;durP2;ratioP2;P2;SDS_P1;SDS_P2;PMS_P1;PMS_P2;Temp;Humidity;BMP_temperature;BMP_pressure;BME280_temperature;BME280_humidity;BME280_pressure;Samples;Min_cycle;Max_cycle;Signal;HPM_P1;HPM_P2
2020/12/02 00:00:07;;;;;;;;;;;;;;;20.68;22.34;98345.59;5120051;28;664;-74
2020/12/02 00:02:55;;;;;;;;;;;;;;;20.86;22.07;98350.13;5120050;28;522;-74
2020/12/02 00:05:21;;;;;;;;;;;;;;;20.57;22.39;98347.78;5120050;28;656;-73
2020/12/02 00:07:47;;;;;;;;;;;;;;;20.68;22.25;98356.91;5135729;27;1055;-73
2020/12/02 00:10:12;;;;;;;;;;;;;;;20.52;22.59;98336.97;5136117;27;891;-74
2020/12/02 00:12:38;;;;;;;;;;;;;;;20.18;23.00;98340.72;5120184;28;862;-74
2020/12/02 00:15:06;;;;;;;;;;;;;;;20.69;22.19;98338.72;5120060;28;562;-74
2020/12/02 00:17:32;;;;;;;;;;;;;;;21.49;21.27;98327.50;5120066;28;1984;-74
2020/12/02 00:19:57;;;;;;;;;;;;;;;21.41;21.12;98334.56;5119882;28;674;-74
2020/12/02 00:22:23;;;;;;;;;;;;;;;21.24;21.67;98328.78;5119897;28;903;-74
2020/12/02 00:24:49;;;;;;;;;;;;;;;20.46;22.42;98338.66;5119627;28;859;-74
2020/12/02 00:27:23;;;;;;;;;;;;;;;20.45;22.42;98337.06;5119762;28;946;-74
2020/12/02 00:29:49;;;;;;;;;;;;;;;21.58;21.12;98339.84;5136236;27;1459;-73
2020/12/02 00:32:34;;;;;;;;;;;;;;;22.04;20.58;98334.38;5120077;28;652;-74
2020/12/02 00:34:59;;;;;;;;;;;;;;;21.51;21.25;98344.88;5120122;28;601;-74
2020/12/02 00:37:25;;;;;;;;;;;;;;;20.85;21.94;98355.00;5135370;28;1902;-73
2020/12/02 00:39:51;;;;;;;;;;;;;;;20.72;22.39;98346.31;5119730;28;889;-74
2020/12/02 00:42:16;;;;;;;;;;;;;;;20.92;22.11;98345.56;5123022;28;841;-74
2020/12/02 00:44:42;;;;;;;;;;;;;;;21.24;21.56;98340.13;5139803;27;1373;-73
2020/12/02 00:47:11;;;;;;;;;;;;;;;21.47;21.17;98341.31;5123891;28;657;-73
2020/12/02 00:49:37;;;;;;;;;;;;;;;20.72;22.16;98340.66;5123462;28;662;-74
2020/12/02 00:52:02;;;;;;;;;;;;;;;20.54;22.32;98332.50;5123229;28;969;-74
2020/12/02 00:54:28;;;;;;;;;;;;;;;20.40;22.53;98334.72;5123096;28;929;-73
2020/12/02 00:56:53;;;;;;;;;;;;;;;20.77;22.22;98336.53;5123386;28;1906;-73
2020/12/02 00:59:24;;;;;;;;;;;;;;;21.51;21.41;98327.88;5123334;28;657;-74
2020/12/02 01:01:50;;;;;;;;;;;;;;;21.33;21.52;98329.03;5139312;27;688;-74
2020/12/02 01:04:16;;;;;;;;;;;;;;;20.19;22.63;98327.41;5123213;28;617;-73
2020/12/02 01:06:42;;;;;;;;;;;;;;;20.96;21.96;98337.81;5122600;28;1028;-73
2020/12/02 01:09:07;;;;;;;;;;;;;;;20.70;22.13;98343.13;5139062;27;820;-73
2020/12/02 01:11:33;;;;;;;;;;;;;;;21.39;21.18;98331.34;5139159;27;976;-74
2020/12/02 01:13:59;;;;;;;;;;;;;;;20.71;22.14;98333.41;5123015;28;712;-73
2020/12/02 01:16:27;;;;;;;;;;;;;;;20.98;21.99;98346.66;5122966;28;1905;-74
2020/12/02 01:18:54;;;;;;;;;;;;;;;20.04;22.77;98344.56;5122616;28;590;-74
2020/12/02 01:21:38;;;;;;;;;;;;;;;21.11;21.87;98336.31;5122708;28;961;-74
2020/12/02 01:24:08;;;;;;;;;;;;;;;21.20;21.62;98339.38;5138583;27;971;-74
2020/12/02 01:26:35;;;;;;;;;;;;;;;20.72;22.06;98334.19;5122481;28;570;-73
2020/12/02 01:29:01;;;;;;;;;;;;;;;20.88;22.03;98353.31;5138890;27;613;-73
2020/12/02 01:31:27;;;;;;;;;;;;;;;21.19;21.44;98334.97;5122753;28;641;-73
2020/12/02 01:33:53;;;;;;;;;;;;;;;20.90;21.96;98345.22;5122739;28;683;-73
2020/12/02 01:36:19;;;;;;;;;;;;;;;20.95;22.01;98341.88;5138098;27;939;-73
2020/12/02 01:38:44;;;;;;;;;;;;;;;20.72;22.12;98335.00;5138704;27;1984;-73
2020/12/02 01:41:11;;;;;;;;;;;;;;;20.74;22.30;98338.22;5122291;28;903;-74
2020/12/02 01:43:36;;;;;;;;;;;;;;;20.72;22.12;98323.69;5122468;28;622;-73
2020/12/02 01:46:08;;;;;;;;;;;;;;;20.63;22.25;98329.13;5122392;28;756;-73
2020/12/02 01:48:34;;;;;;;;;;;;;;;20.46;22.34;98318.88;5138861;27;616;-74
2020/12/02 01:51:05;;;;;;;;;;;;;;;20.01;23.00;98322.03;5121724;28;882;-74
2020/12/02 01:53:31;;;;;;;;;;;;;;;20.53;22.45;98325.25;5121697;28;883;-74
2020/12/02 01:56:04;;;;;;;;;;;;;;;20.65;22.60;98323.03;5122053;28;925;-74
2020/12/02 01:58:51;;;;;;;;;;;;;;;19.39;23.88;98318.41;5138344;27;1905;-74
2020/12/02 02:01:32;;;;;;;;;;;;;;;20.49;22.20;98329.38;5121731;28;702;-74
2020/12/02 02:03:57;;;;;;;;;;;;;;;20.41;22.60;98322.97;5121779;28;649;-73
2020/12/02 02:06:26;;;;;;;;;;;;;;;20.44;22.29;98321.34;5121372;28;983;-73
2020/12/02 02:08:51;;;;;;;;;;;;;;;20.48;22.30;98324.94;5138068;27;897;-74
2020/12/02 02:11:18;;;;;;;;;;;;;;;20.19;22.89;98319.72;5121575;28;994;-72
2020/12/02 02:14:02;;;;;;;;;;;;;;;20.54;22.46;98315.53;5122018;28;629;-74
2020/12/02 02:16:40;;;;;;;;;;;;;;;20.11;22.82;98317.44;5121636;28;1905;-74
2020/12/02 02:19:07;;;;;;;;;;;;;;;20.69;21.95;98318.91;5121464;28;632;-73
2020/12/02 02:21:33;;;;;;;;;;;;;;;20.55;22.08;98313.50;5137929;27;1062;-73
2020/12/02 02:23:58;;;;;;;;;;;;;;;19.89;23.51;98300.81;5121381;28;786;-73
2020/12/02 02:26:44;;;;;;;;;;;;;;;20.78;22.05;98305.03;5121761;28;932;-74
2020/12/02 02:29:17;;;;;;;;;;;;;;;21.23;21.70;98301.72;5121412;28;1282;-73
2020/12/02 02:31:54;;;;;;;;;;;;;;;21.47;21.26;98296.00;5137628;27;859;-73
2020/12/02 02:34:19;;;;;;;;;;;;;;;21.05;21.62;98293.59;5137565;27;617;-74
2020/12/02 02:36:45;;;;;;;;;;;;;;;20.66;22.20;98288.66;5121097;28;1905;-73
2020/12/02 02:39:11;;;;;;;;;;;;;;;20.59;22.36;98300.13;5137253;27;900;-73
2020/12/02 02:41:36;;;;;;;;;;;;;;;20.74;22.20;98290.13;5121294;28;812;-73
2020/12/02 02:44:02;;;;;;;;;;;;;;;20.40;22.62;98293.13;5121326;28;643;-73
2020/12/02 02:46:27;;;;;;;;;;;;;;;20.61;22.15;98300.47;5121240;28;717;-73
2020/12/02 02:48:53;;;;;;;;;;;;;;;20.61;22.19;98294.81;5103550;28;684;-73
2020/12/02 02:51:18;;;;;;;;;;;;;;;20.60;22.29;98301.69;5120884;28;1068;-74
2020/12/02 02:53:44;;;;;;;;;;;;;;;21.09;21.72;98302.00;5120537;28;877;-73
2020/12/02 02:56:12;;;;;;;;;;;;;;;21.60;21.12;98291.25;5121003;28;1053;-73
2020/12/02 02:58:38;;;;;;;;;;;;;;;21.68;20.87;98300.41;5120998;28;1909;-73
2020/12/02 03:01:03;;;;;;;;;;;;;;;21.72;20.98;98298.28;5121154;28;634;-72
2020/12/02 03:03:29;;;;;;;;;;;;;;;20.95;21.63;98303.06;5120405;28;653;-74
2020/12/02 03:05:55;;;;;;;;;;;;;;;20.61;22.19;98311.78;5120666;28;852;-74
2020/12/02 03:08:21;;;;;;;;;;;;;;;20.47;22.37;98317.69;5120604;28;923;-74
2020/12/02 03:10:46;;;;;;;;;;;;;;;20.64;22.15;98308.09;5120960;28;889;-73
2020/12/02 03:13:17;;;;;;;;;;;;;;;21.23;21.44;98313.03;5120520;28;618;-74
2020/12/02 03:15:43;;;;;;;;;;;;;;;21.62;20.97;98307.81;5120446;28;1050;-74
2020/12/02 03:18:08;;;;;;;;;;;;;;;20.85;21.74;98331.56;5120446;28;1906;-74
2020/12/02 03:20:37;;;;;;;;;;;;;;;20.06;22.91;98317.94;5136838;27;906;-74
2020/12/02 03:23:02;;;;;;;;;;;;;;;20.07;22.74;98311.84;5120240;28;860;-74
2020/12/02 03:25:30;;;;;;;;;;;;;;;20.79;21.98;98309.44;5120444;28;809;-73
2020/12/02 03:27:55;;;;;;;;;;;;;;;21.52;21.38;98318.94;5136442;27;923;-74
2020/12/02 03:30:21;;;;;;;;;;;;;;;21.64;21.05;98317.47;5120694;28;649;-73
2020/12/02 03:32:46;;;;;;;;;;;;;;;21.18;21.43;98313.53;5120361;28;585;-75
2020/12/02 03:35:11;;;;;;;;;;;;;;;20.69;22.15;98318.91;5136484;27;862;-74
2020/12/02 03:37:37;;;;;;;;;;;;;;;20.61;22.42;98327.94;5120219;28;1984;-74
2020/12/02 03:40:05;;;;;;;;;;;;;;;21.08;21.63;98323.03;5120508;28;933;-74
2020/12/02 03:42:31;;;;;;;;;;;;;;;21.01;21.89;98323.19;5120342;28;612;-74
2020/12/02 03:44:56;;;;;;;;;;;;;;;20.44;22.22;98319.31;5120571;28;593;-74
2020/12/02 03:47:22;;;;;;;;;;;;;;;20.54;22.08;98331.69;5120930;28;676;-74
2020/12/02 03:49:47;;;;;;;;;;;;;;;21.06;21.63;98325.50;5119941;28;897;-74
2020/12/02 03:52:13;;;;;;;;;;;;;;;20.92;22.08;98339.91;5119875;28;807;-74
2020/12/02 03:54:38;;;;;;;;;;;;;;;20.79;22.22;98334.91;5120455;28;950;-74
2020/12/02 03:57:03;;;;;;;;;;;;;;;20.69;22.21;98330.22;5120478;28;1974;-74
2020/12/02 03:59:29;;;;;;;;;;;;;;;20.74;22.22;98335.38;5120356;28;616;-74
2020/12/02 04:01:55;;;;;;;;;;;;;;;20.94;21.76;98328.97;5120103;28;657;-74
2020/12/02 04:04:20;;;;;;;;;;;;;;;21.21;21.67;98326.03;5120085;28;971;-74
2020/12/02 04:06:46;;;;;;;;;;;;;;;21.28;21.28;98325.88;5119826;28;846;-74
2020/12/02 04:09:11;;;;;;;;;;;;;;;20.74;21.95;98328.94;5119936;28;1106;-74
2020/12/02 04:11:36;;;;;;;;;;;;;;;20.58;22.30;98323.97;5120250;28;577;-74
2020/12/02 04:14:02;;;;;;;;;;;;;;;20.52;22.16;98336.97;5120049;28;688;-74
2020/12/02 04:16:28;;;;;;;;;;;;;;;20.68;22.12;98334.28;5123858;28;1993;-74
2020/12/02 04:18:54;;;;;;;;;;;;;;;20.46;22.63;98344.31;5124125;28;832;-74
2020/12/02 04:21:25;;;;;;;;;;;;;;;20.44;22.43;98341.13;5123854;28;949;-74
2020/12/02 04:23:52;;;;;;;;;;;;;;;20.26;22.67;98341.41;5124063;28;808;-74
2020/12/02 04:26:17;;;;;;;;;;;;;;;20.50;22.34;98340.22;5123697;28;717;-74
2020/12/02 04:28:42;;;;;;;;;;;;;;;21.23;21.43;98341.31;5123820;28;613;-74
2020/12/02 04:31:08;;;;;;;;;;;;;;;21.26;21.34;98346.13;5123547;28;655;-74
2020/12/02 04:33:33;;;;;;;;;;;;;;;21.16;21.20;98341.47;5123350;28;875;-74
2020/12/02 04:35:59;;;;;;;;;;;;;;;20.77;21.87;98334.50;5123506;28;864;-74
2020/12/02 04:38:24;;;;;;;;;;;;;;;20.19;22.68;98339.50;5123332;28;1898;-74
2020/12/02 04:40:50;;;;;;;;;;;;;;;20.74;22.07;98343.88;5123849;28;652;-74
2020/12/02 04:43:21;;;;;;;;;;;;;;;21.29;21.55;98339.59;5123410;28;609;-74
2020/12/02 04:45:47;;;;;;;;;;;;;;;21.36;21.22;98338.69;5123292;28;621;-74
2020/12/02 04:48:14;;;;;;;;;;;;;;;20.41;22.09;98347.63;5139766;27;966;-74
2020/12/02 04:50:39;;;;;;;;;;;;;;;20.97;21.64;98350.72;5122886;28;915;-74
2020/12/02 04:53:08;;;;;;;;;;;;;;;20.00;22.98;98338.19;5123263;28;844;-74
2020/12/02 04:55:33;;;;;;;;;;;;;;;20.88;21.78;98350.47;5139604;27;652;-74
2020/12/02 04:57:59;;;;;;;;;;;;;;;21.58;21.00;98356.03;5122972;28;1985;-74
2020/12/02 05:00:29;;;;;;;;;;;;;;;21.75;20.79;98340.69;5123388;28;661;-74
2020/12/02 05:03:14;;;;;;;;;;;;;;;20.86;21.71;98350.94;5122705;28;974;-74
2020/12/02 05:05:40;;;;;;;;;;;;;;;20.65;22.28;98337.97;5122410;28;2068;-74
2020/12/02 05:08:15;;;;;;;;;;;;;;;20.74;22.00;98338.22;5123162;28;621;-74
2020/12/02 05:10:40;;;;;;;;;;;;;;;20.84;21.90;98341.28;5122838;28;665;-74
2020/12/02 05:13:09;;;;;;;;;;;;;;;21.29;21.50;98333.91;5123085;28;645;-74
2020/12/02 05:15:35;;;;;;;;;;;;;;;21.61;20.94;98338.19;5122681;28;1479;-75
2020/12/02 05:18:05;;;;;;;;;;;;;;;21.05;21.74;98340.88;5123068;28;1905;-74
2020/12/02 05:20:30;;;;;;;;;;;;;;;20.80;21.94;98342.13;5122502;28;930;-74
2020/12/02 05:22:56;;;;;;;;;;;;;;;20.60;22.12;98346.94;5122636;28;889;-74
2020/12/02 05:25:24;;;;;;;;;;;;;;;20.63;22.12;98343.25;5122907;28;880;-74
2020/12/02 05:27:51;;;;;;;;;;;;;;;20.56;22.28;98349.03;5121826;28;663;-74
2020/12/02 05:30:25;;;;;;;;;;;;;;;20.90;21.87;98357.31;5105022;28;666;-74
2020/12/02 05:33:00;;;;;;;;;;;;;;;21.54;21.03;98346.81;5122559;28;688;-74
2020/12/02 05:35:25;;;;;;;;;;;;;;;21.31;21.29;98359.81;5122114;28;979;-74
2020/12/02 05:37:51;;;;;;;;;;;;;;;20.04;22.93;98360.72;5104759;28;1963;-74
2020/12/02 05:40:16;;;;;;;;;;;;;;;19.63;23.76;98369.34;5104677;28;821;-75
2020/12/02 05:42:42;;;;;;;;;;;;;;;20.97;22.09;98373.34;5104611;28;610;-74
2020/12/02 05:45:08;;;;;;;;;;;;;;;21.37;21.37;98367.78;5104536;28;582;-74
2020/12/02 05:47:33;;;;;;;;;;;;;;;21.87;20.54;98372.44;5121693;28;1551;-74
2020/12/02 05:49:59;;;;;;;;;;;;;;;21.27;21.38;98369.56;5121706;28;1499;-74
2020/12/02 05:52:24;;;;;;;;;;;;;;;20.83;21.87;98377.25;5138047;27;1341;-74
2020/12/02 05:54:52;;;;;;;;;;;;;;;20.60;22.44;98374.41;5121737;28;1574;-74
2020/12/02 05:57:18;;;;;;;;;;;;;;;20.61;22.36;98379.63;5121857;28;1951;-74
2020/12/02 05:59:45;;;;;;;;;;;;;;;20.45;22.61;98371.78;5104989;28;654;-74
2020/12/02 06:02:10;;;;;;;;;;;;;;;20.53;22.43;98372.50;5104277;28;661;-74
2020/12/02 06:04:36;;;;;;;;;;;;;;;20.45;22.31;98370.97;5121434;28;1047;-74
2020/12/02 06:07:01;;;;;;;;;;;;;;;20.85;22.12;98365.50;5103869;28;965;-74
2020/12/02 06:09:27;;;;;;;;;;;;;;;21.51;21.24;98373.19;5122062;28;966;-74
2020/12/02 06:11:55;;;;;;;;;;;;;;;21.50;20.97;98371.56;5103962;28;1358;-74
2020/12/02 06:14:31;;;;;;;;;;;;;;;20.51;22.22;98369.28;5121314;28;1499;-74
2020/12/02 06:16:57;;;;;;;;;;;;;;;19.90;23.04;98375.03;5103560;28;1956;-74
2020/12/02 06:19:24;;;;;;;;;;;;;;;20.16;22.75;98379.91;5121182;28;994;-74
2020/12/02 06:21:52;;;;;;;;;;;;;;;20.23;22.65;98382.63;5120860;28;1589;-74
2020/12/02 06:24:25;;;;;;;;;;;;;;;20.97;21.75;98385.47;5121150;28;1459;-74
2020/12/02 06:26:51;;;;;;;;;;;;;;;20.68;22.01;98382.34;5138140;27;665;-74
2020/12/02 06:29:26;;;;;;;;;;;;;;;20.57;22.41;98384.53;5121268;28;1581;-74
2020/12/02 06:31:56;;;;;;;;;;;;;;;20.76;21.96;98386.66;5121692;28;705;-74
2020/12/02 06:34:23;;;;;;;;;;;;;;;19.76;23.45;98388.13;5121067;28;1042;-74
2020/12/02 06:37:07;;;;;;;;;;;;;;;20.81;22.04;98393.84;5120776;28;1897;-74
2020/12/02 06:39:34;;;;;;;;;;;;;;;20.61;22.27;98402.25;5120346;28;657;-74
2020/12/02 06:42:00;;;;;;;;;;;;;;;20.89;21.79;98406.66;5121562;28;626;-74
2020/12/02 06:44:34;;;;;;;;;;;;;;;21.14;21.53;98400.53;5103425;28;1410;-74
2020/12/02 06:47:00;;;;;;;;;;;;;;;20.91;21.87;98411.88;5101162;28;1515;-74
2020/12/02 06:49:29;;;;;;;;;;;;;;;20.65;22.16;98403.00;5115054;28;1691;-74
2020/12/02 06:51:56;;;;;;;;;;;;;;;20.74;22.23;98405.28;5107132;28;1645;-74
2020/12/02 06:54:22;;;;;;;;;;;;;;;20.67;21.99;98406.19;5120799;28;951;-74
2020/12/02 06:56:47;;;;;;;;;;;;;;;20.59;22.28;98403.91;5120908;28;1893;-74
2020/12/02 06:59:13;;;;;;;;;;;;;;;20.45;22.60;98410.56;5103201;28;594;-73
2020/12/02 07:01:39;;;;;;;;;;;;;;;20.44;22.43;98411.78;5120870;28;783;-71
2020/12/02 07:04:05;;;;;;;;;;;;;;;20.36;22.50;98413.13;5102703;28;1957;-74
2020/12/02 07:06:31;;;;;;;;;;;;;;;20.18;22.94;98422.66;5129477;27;873;-74
2020/12/02 07:09:02;;;;;;;;;;;;;;;20.66;22.34;98412.28;5100348;28;915;-74
2020/12/02 07:11:28;;;;;;;;;;;;;;;21.28;21.43;98416.44;5100219;28;673;-74
2020/12/02 07:13:53;;;;;;;;;;;;;;;21.59;20.98;98414.25;5100276;28;636;-73
2020/12/02 07:16:30;;;;;;;;;;;;;;;21.04;21.76;98407.19;5100370;28;992;-74
2020/12/02 07:18:58;;;;;;;;;;;;;;;20.14;22.92;98418.28;5099909;28;1983;-74
2020/12/02 07:21:35;;;;;;;;;;;;;;;19.80;23.37;98415.50;5099779;28;910;-74
2020/12/02 07:24:00;;;;;;;;;;;;;;;20.87;22.08;98419.59;5116942;27;688;-74
2020/12/02 07:26:26;;;;;;;;;;;;;;;20.91;21.89;98431.66;5100087;28;672;-74
2020/12/02 07:29:15;;;;;;;;;;;;;;;20.89;22.19;98434.13;5100173;28;648;-74
2020/12/02 07:31:40;;;;;;;;;;;;;;;20.98;21.82;98425.88;5102133;28;1550;-74
2020/12/02 07:34:20;;;;;;;;;;;;;;;20.94;21.93;98430.81;5102380;28;1519;-71
2020/12/02 07:36:46;;;;;;;;;;;;;;;20.68;22.28;98430.44;5119626;28;2026;-74
2020/12/02 07:39:12;;;;;;;;;;;;;;;20.59;22.31;98438.63;5120238;28;1559;-74
2020/12/02 07:41:58;;;;;;;;;;;;;;;20.63;22.28;98430.13;5120745;28;684;-74
2020/12/02 07:44:24;;;;;;;;;;;;;;;20.69;22.20;98423.53;5109567;28;1491;-74
2020/12/02 07:46:49;;;;;;;;;;;;;;;20.66;22.32;98432.88;5120120;28;1455;-73
2020/12/02 07:49:15;;;;;;;;;;;;;;;20.91;22.18;98421.16;5117732;28;1482;-74
2020/12/02 07:51:42;;;;;;;;;;;;;;;21.07;22.08;98423.28;5122558;27;1534;-74
2020/12/02 07:54:21;;;;;;;;;;;;;;;21.02;22.19;98432.28;5115222;28;1566;-74
2020/12/02 07:56:47;;;;;;;;;;;;;;;21.04;21.84;98429.84;5140129;27;1870;-74
2020/12/02 07:59:20;;;;;;;;;;;;;;;20.64;22.45;98432.50;5120094;28;1411;-74
2020/12/02 08:01:58;;;;;;;;;;;;;;;20.56;22.58;98428.19;5104110;28;614;-74
2020/12/02 08:04:23;;;;;;;;;;;;;;;21.37;21.50;98430.88;5103801;28;657;-74
2020/12/02 08:06:58;;;;;;;;;;;;;;;21.26;21.76;98428.19;5104007;28;682;-74
2020/12/02 08:09:24;;;;;;;;;;;;;;;21.27;21.63;98438.28;5122609;28;1618;-74
2020/12/02 08:11:50;;;;;;;;;;;;;;;21.00;22.06;98435.53;5123691;28;951;-74
2020/12/02 08:14:29;;;;;;;;;;;;;;;20.96;22.07;98439.66;5106118;28;786;-74
2020/12/02 08:17:04;;;;;;;;;;;;;;;20.89;22.38;98448.28;5122194;28;1905;-74
2020/12/02 08:19:30;;;;;;;;;;;;;;;21.43;21.46;98439.66;5140661;27;674;-74
2020/12/02 08:21:56;;;;;;;;;;;;;;;20.37;22.63;98440.19;5123934;28;649;-74
2020/12/02 08:24:40;;;;;;;;;;;;;;;21.07;22.22;98443.91;5140334;27;838;-74
2020/12/02 08:27:06;;;;;;;;;;;;;;;21.23;21.99;98431.09;5123127;28;1605;-74
2020/12/02 08:29:32;;;;;;;;;;;;;;;21.24;21.92;98439.16;5123797;28;596;-74
2020/12/02 08:31:59;;;;;;;;;;;;;;;21.13;21.79;98444.19;5124074;28;654;-74
2020/12/02 08:34:24;;;;;;;;;;;;;;;20.86;22.35;98446.28;5105945;28;663;-74
2020/12/02 08:37:08;;;;;;;;;;;;;;;20.71;22.38;98440.06;5123050;28;1902;-74
2020/12/02 08:39:34;;;;;;;;;;;;;;;20.63;22.35;98442.22;5122947;28;1495;-74
2020/12/02 08:42:00;;;;;;;;;;;;;;;20.45;22.90;98421.88;5122307;28;1502;-74
2020/12/02 08:44:25;;;;;;;;;;;;;;;20.54;22.73;98441.94;5123564;28;1566;-72
2020/12/02 08:46:54;;;;;;;;;;;;;;;20.52;22.60;98433.09;5123354;28;1656;-74
2020/12/02 08:49:29;;;;;;;;;;;;;;;20.43;22.87;98432.81;5109180;28;633;-74
2020/12/02 08:51:54;;;;;;;;;;;;;;;20.30;23.11;98427.72;5102965;28;627;-74
2020/12/02 08:54:24;;;;;;;;;;;;;;;20.83;22.10;98430.16;5102532;28;844;-74
2020/12/02 08:56:50;;;;;;;;;;;;;;;21.24;21.78;98422.19;5102393;28;1893;-74
2020/12/02 08:59:15;;;;;;;;;;;;;;;21.36;21.48;98412.28;5108195;28;1519;-74
2020/12/02 09:01:41;;;;;;;;;;;;;;;21.41;21.33;98425.16;5122286;28;676;-73
2020/12/02 09:04:06;;;;;;;;;;;;;;;20.89;22.25;98411.50;5123411;28;689;-73
2020/12/02 09:06:32;;;;;;;;;;;;;;;20.80;22.23;98412.03;5107300;28;673;-74
2020/12/02 09:08:57;;;;;;;;;;;;;;;20.62;22.46;98415.16;5102288;28;867;-74
2020/12/02 09:11:24;;;;;;;;;;;;;;;21.23;21.81;98409.25;5102171;28;892;-74
2020/12/02 09:13:50;;;;;;;;;;;;;;;21.64;21.11;98404.47;5103019;28;1107;-74
2020/12/02 09:16:19;;;;;;;;;;;;;;;21.42;21.31;98413.38;5102553;28;1096;-74
2020/12/02 09:18:44;;;;;;;;;;;;;;;21.81;20.95;98408.94;5119116;28;1988;-74
2020/12/02 09:21:10;;;;;;;;;;;;;;;21.42;21.43;98423.91;5102330;28;627;-74
2020/12/02 09:23:35;;;;;;;;;;;;;;;20.91;22.08;98414.69;5107229;28;904;-74
2020/12/02 09:26:01;;;;;;;;;;;;;;;20.26;22.91;98407.22;5123004;28;889;-74
2020/12/02 09:28:26;;;;;;;;;;;;;;;20.90;22.25;98401.78;5122886;28;804;-74
2020/12/02 09:30:51;;;;;;;;;;;;;;;21.20;22.06;98412.97;5122527;28;668;-74
2020/12/02 09:33:17;;;;;;;;;;;;;;;21.42;21.42;98409.75;5122457;28;586;-74
2020/12/02 09:35:42;;;;;;;;;;;;;;;19.94;23.24;98410.47;5122133;28;1523;-74
2020/12/02 09:38:08;;;;;;;;;;;;;;;20.10;23.50;98407.03;5121537;28;1901;-74
2020/12/02 09:40:34;;;;;;;;;;;;;;;20.15;23.10;98403.72;5122043;28;896;-74
2020/12/02 09:43:18;;;;;;;;;;;;;;;20.67;22.41;98400.53;5122228;28;825;-74
2020/12/02 09:45:43;;;;;;;;;;;;;;;20.57;22.62;98395.03;5122208;28;621;-74
2020/12/02 09:48:13;;;;;;;;;;;;;;;21.38;21.59;98397.69;5121721;28;1479;-74
2020/12/02 09:50:39;;;;;;;;;;;;;;;21.13;21.98;98390.44;5122372;28;677;-73
2020/12/02 09:53:09;;;;;;;;;;;;;;;21.24;21.88;98396.72;5121944;28;939;-74
2020/12/02 09:55:34;;;;;;;;;;;;;;;20.60;22.77;98389.34;5104200;28;838;-74
2020/12/02 09:58:00;;;;;;;;;;;;;;;21.35;21.66;98392.88;5121425;28;2000;-74
2020/12/02 10:00:25;;;;;;;;;;;;;;;20.89;22.36;98388.88;5121465;28;1602;-74
2020/12/02 10:03:11;;;;;;;;;;;;;;;20.62;22.75;98392.53;5122444;28;662;-74
2020/12/02 10:05:40;;;;;;;;;;;;;;;21.02;22.33;98392.66;5104294;28;638;-74
2020/12/02 10:08:12;;;;;;;;;;;;;;;20.94;22.20;98385.56;5121079;28;1546;-73
2020/12/02 10:10:38;;;;;;;;;;;;;;;20.98;22.12;98386.25;5116894;28;1174;-74
2020/12/02 10:13:06;;;;;;;;;;;;;;;20.63;22.76;98371.53;5101005;28;841;-74
2020/12/02 10:15:31;;;;;;;;;;;;;;;20.56;22.86;98377.28;5117353;28;1442;-74
2020/12/02 10:18:00;;;;;;;;;;;;;;;20.53;22.79;98383.81;5101212;28;1905;-74
2020/12/02 10:20:26;;;;;;;;;;;;;;;20.70;22.75;98377.06;5118620;28;1519;-74
2020/12/02 10:22:51;;;;;;;;;;;;;;;20.43;23.09;98385.56;5121533;28;960;-74
2020/12/02 10:25:16;;;;;;;;;;;;;;;20.53;22.84;98406.44;5121079;28;819;-74
2020/12/02 10:28:00;;;;;;;;;;;;;;;20.70;22.45;98391.19;5121740;28;928;-74
2020/12/02 10:30:27;;;;;;;;;;;;;;;21.21;21.99;98397.56;5120928;28;1515;-74
2020/12/02 10:32:55;;;;;;;;;;;;;;;21.38;21.72;98404.16;5121296;28;691;-74
2020/12/02 10:35:20;;;;;;;;;;;;;;;21.51;21.60;98401.50;5121409;28;717;-75
2020/12/02 10:37:47;;;;;;;;;;;;;;;21.80;21.10;98396.81;5120814;28;1909;-74
2020/12/02 10:40:13;;;;;;;;;;;;;;;21.77;21.33;98403.38;5120455;28;1515;-74
2020/12/02 10:42:51;;;;;;;;;;;;;;;20.94;22.25;98411.00;5121153;28;845;-74
2020/12/02 10:45:17;;;;;;;;;;;;;;;20.83;22.40;98407.53;5121395;28;661;-74
2020/12/02 10:48:01;;;;;;;;;;;;;;;20.71;22.68;98400.47;5121055;28;609;-74
2020/12/02 10:50:29;;;;;;;;;;;;;;;20.78;22.38;98409.66;5120540;28;1631;-74
2020/12/02 10:52:54;;;;;;;;;;;;;;;21.12;22.09;98402.19;5121030;28;1006;-74
2020/12/02 10:55:24;;;;;;;;;;;;;;;20.94;22.42;98408.19;5102560;28;833;-74
2020/12/02 10:57:56;;;;;;;;;;;;;;;20.80;22.69;98398.69;5120800;28;1974;-74
2020/12/02 11:00:21;;;;;;;;;;;;;;;21.27;22.01;98409.97;5120414;28;1507;-74
2020/12/02 11:02:47;;;;;;;;;;;;;;;21.35;22.06;98409.88;5120499;28;1584;-74
2020/12/02 11:05:12;;;;;;;;;;;;;;;21.18;21.98;98401.25;5137191;27;607;-74
2020/12/02 11:07:47;;;;;;;;;;;;;;;21.11;22.10;98401.41;5120393;28;908;-74
2020/12/02 11:10:28;;;;;;;;;;;;;;;21.21;22.36;98406.06;5136461;27;1578;-73
2020/12/02 11:13:12;;;;;;;;;;;;;;;20.32;23.12;98398.25;5137381;27;752;-74
2020/12/02 11:15:48;;;;;;;;;;;;;;;20.88;22.70;98398.56;5121026;28;952;-74
2020/12/02 11:18:21;;;;;;;;;;;;;;;21.02;22.51;98398.31;5120512;28;1980;-74
2020/12/02 11:21:05;;;;;;;;;;;;;;;20.52;23.10;98393.50;5136945;27;1916;-74
2020/12/02 11:23:49;;;;;;;;;;;;;;;21.04;22.36;98393.84;5119866;28;1444;-74
2020/12/02 11:26:14;;;;;;;;;;;;;;;20.72;22.98;98385.91;5120054;28;832;-74
2020/12/02 11:28:44;;;;;;;;;;;;;;;20.58;23.11;98393.84;5120749;28;628;-74
2020/12/02 11:31:24;;;;;;;;;;;;;;;20.53;22.91;98390.28;5120137;28;1526;-73
2020/12/02 11:34:08;;;;;;;;;;;;;;;20.69;22.68;98389.59;5120547;28;1871;-74
2020/12/02 11:36:37;;;;;;;;;;;;;;;20.59;23.22;98387.75;5120365;28;716;-74
2020/12/02 11:39:05;;;;;;;;;;;;;;;20.40;23.54;98385.59;5101525;28;1980;-74
2020/12/02 11:41:33;;;;;;;;;;;;;;;20.42;22.94;98377.50;5120421;28;940;-74
2020/12/02 11:44:01;;;;;;;;;;;;;;;20.35;23.40;98383.25;5136789;28;1113;-75
2020/12/02 11:46:27;;;;;;;;;;;;;;;20.98;22.49;98384.22;5136717;28;617;-74
2020/12/02 11:48:57;;;;;;;;;;;;;;;21.59;21.66;98377.44;5136284;28;1523;-75
2020/12/02 11:51:46;;;;;;;;;;;;;;;21.56;21.80;98375.50;5136933;27;681;-74
2020/12/02 11:54:12;;;;;;;;;;;;;;;20.74;22.65;98369.31;5120146;28;953;-74
2020/12/02 11:56:38;;;;;;;;;;;;;;;20.33;23.27;98372.38;5119818;28;937;-74
2020/12/02 11:59:04;;;;;;;;;;;;;;;21.03;22.51;98377.28;5120138;28;1949;-74
2020/12/02 12:01:29;;;;;;;;;;;;;;;21.09;22.42;98381.25;5119992;28;1606;-74
2020/12/02 12:03:59;;;;;;;;;;;;;;;21.93;21.23;98382.00;5120221;28;685;-74
2020/12/02 12:06:25;;;;;;;;;;;;;;;21.39;21.80;98382.31;5136345;28;765;-74
2020/12/02 12:09:02;;;;;;;;;;;;;;;20.47;23.18;98375.03;5136462;27;931;-74
2020/12/02 12:11:34;;;;;;;;;;;;;;;20.45;23.30;98377.44;5134191;28;1530;-74
2020/12/02 12:14:18;;;;;;;;;;;;;;;20.68;22.96;98376.69;5120228;28;1600;-74
2020/12/02 12:16:50;;;;;;;;;;;;;;;20.72;22.90;98368.94;5119873;28;976;-74
2020/12/02 12:19:32;;;;;;;;;;;;;;;20.63;22.90;98370.75;5102467;28;656;-74
2020/12/02 12:22:07;;;;;;;;;;;;;;;20.53;23.25;98369.69;5102302;28;1695;-74
2020/12/02 12:24:32;;;;;;;;;;;;;;;20.30;23.37;98371.19;5119908;28;852;-74
2020/12/02 12:26:58;;;;;;;;;;;;;;;20.89;22.61;98371.91;5119613;28;894;-74
2020/12/02 12:29:23;;;;;;;;;;;;;;;21.41;22.11;98362.88;5119994;28;936;-74
2020/12/02 12:31:53;;;;;;;;;;;;;;;21.69;21.56;98372.78;5119069;28;1617;-74
2020/12/02 12:34:24;;;;;;;;;;;;;;;21.14;22.15;98377.91;5119620;28;1455;-74
2020/12/02 12:36:51;;;;;;;;;;;;;;;20.66;22.92;98376.31;5122572;28;1975;-73
2020/12/02 12:39:27;;;;;;;;;;;;;;;20.55;23.03;98381.34;5120272;27;1419;-74
2020/12/02 12:41:52;;;;;;;;;;;;;;;21.02;22.73;98376.50;5119351;28;812;-74
2020/12/02 12:44:34;;;;;;;;;;;;;;;21.43;22.17;98377.38;5103059;28;916;-74
2020/12/02 12:46:59;;;;;;;;;;;;;;;20.91;22.52;98386.41;5102968;28;659;-74
2020/12/02 12:49:25;;;;;;;;;;;;;;;20.44;23.29;98381.50;5118687;28;1510;-74
2020/12/02 12:51:50;;;;;;;;;;;;;;;20.96;22.63;98388.75;5105668;28;864;-74
2020/12/02 12:54:16;;;;;;;;;;;;;;;21.47;22.09;98378.91;5105648;28;890;-74
2020/12/02 12:56:42;;;;;;;;;;;;;;;21.45;21.86;98381.38;5123022;28;862;-74
2020/12/02 12:59:09;;;;;;;;;;;;;;;21.48;21.79;98391.03;5122873;28;1974;-74
2020/12/02 13:01:34;;;;;;;;;;;;;;;20.92;22.51;98399.31;5105776;28;594;-74
2020/12/02 13:04:00;;;;;;;;;;;;;;;20.58;23.00;98403.13;5122811;28;1527;-74
2020/12/02 13:06:45;;;;;;;;;;;;;;;20.67;22.79;98400.53;5135660;27;1573;-74
2020/12/02 13:09:21;;;;;;;;;;;;;;;21.22;22.31;98402.00;5139175;27;964;-74